Bastille Street — A8YZ6 — position and weather

sailwx.info

Track history (hours):
 
Tides and Currents Weather Stations Pressure Air Temp Water Temp Dewpoint Dewpoint Depression Visibility Wind Speed Wind Dir Waves Ship Positions

Bastille Street

Last reported at 2017-Oct-30 11:45 UTC. Time now 2017-Nov-23 05:48 UTC.
Position S 24°15' W 046°03'.
Warning: this ship's position is 23 days out of date.

Length 180 m; draft 7.7 m.

MMSI: 636015161.

Date/timePositionNaut miles runAvg speedWind from/ knotsBaromVisibWave heightAir tempDewpointWater temp
2017-Oct-30 11:45S 24°15' W 046°03'612.8
2017-Oct-30 11:15S 24°15' W 046°10'312.4
2017-Oct-30 11:00S 24°15' W 046°13'612.5
2017-Oct-30 10:30S 24°16' W 046°20'611.7
2017-Oct-30 10:00S 24°11' W 046°24'613.0
2017-Oct-30 09:30S 24°05' W 046°22'510.6
2017-Oct-30 09:00S 24°00' W 046°20'3 5.8
2017-Oct-30 08:30S 23°58' W 046°18'  
2017-Oct-27 03:34S 23°56' W 046°20'0 0.7
2017-Oct-27 03:17S 23°56' W 046°20'1 5.2
2017-Oct-27 03:00S 23°57' W 046°19'3 5.5
2017-Oct-27 02:30S 23°60' W 046°19'4 7.7
2017-Oct-27 02:00S 24°03' W 046°21'3 6.6
2017-Oct-27 01:30S 24°06' W 046°21'1 1.1
2017-Oct-27 00:59S 24°06' W 046°21'0 0.1
2017-Oct-27 00:29S 24°06' W 046°21'0 0.0
2017-Oct-26 23:59S 24°06' W 046°21'0 0.0
2017-Oct-26 23:29S 24°06' W 046°21'0 0.0
2017-Oct-26 22:59S 24°06' W 046°21'0 0.0
2017-Oct-26 22:29S 24°06' W 046°21'0 0.0
2017-Oct-26 21:59S 24°06' W 046°21'0 0.0
2017-Oct-26 20:53S 24°06' W 046°21'0 0.0
2017-Oct-26 20:17S 24°06' W 046°21'0 0.0
2017-Oct-26 18:59S 24°06' W 046°21'0 0.0
2017-Oct-26 18:29S 24°06' W 046°21'0 0.0
2017-Oct-26 17:59S 24°06' W 046°21'0 0.0
2017-Oct-26 17:29S 24°06' W 046°21'0 0.0
2017-Oct-26 16:53S 24°06' W 046°21'0 0.0
2017-Oct-26 16:23S 24°06' W 046°21'0 0.0
2017-Oct-26 15:59S 24°06' W 046°21'0 0.0
2017-Oct-26 15:11S 24°06' W 046°21'0 0.0
2017-Oct-26 14:59S 24°06' W 046°21'0 0.0
2017-Oct-26 14:29S 24°06' W 046°21'0 0.0
2017-Oct-26 13:59S 24°06' W 046°21'0 0.0
2017-Oct-26 13:20S 24°06' W 046°21'0 0.0
2017-Oct-26 12:59S 24°06' W 046°21'0 0.0
2017-Oct-26 12:29S 24°06' W 046°21'0 0.0
2017-Oct-26 11:59S 24°06' W 046°21'0 0.0
2017-Oct-26 11:29S 24°06' W 046°21'0 0.1
2017-Oct-26 10:53S 24°06' W 046°21'0 0.9
2017-Oct-26 10:30S 24°06' W 046°21'1 2.8
2017-Oct-26 10:00S 24°06' W 046°23'3 5.8
2017-Oct-26 09:30S 24°08' W 046°20'0 0.5
2017-Oct-26 08:52S 24°08' W 046°20'0 0.0
2017-Oct-26 08:22S 24°08' W 046°20'0 0.0
2017-Oct-26 07:52S 24°08' W 046°20'0 0.0
2017-Oct-26 07:28S 24°08' W 046°20'0 0.0
2017-Oct-26 06:58S 24°08' W 046°20'0 0.0
2017-Oct-26 06:22S 24°08' W 046°20'0 0.0
2017-Oct-26 05:46S 24°08' W 046°20'0 0.0
2017-Oct-26 05:22S 24°08' W 046°20'0 0.0
2017-Oct-26 04:58S 24°08' W 046°20'0 0.0
2017-Oct-26 04:04S 24°08' W 046°20'0 0.1
2017-Oct-26 03:58S 24°08' W 046°20'0 0.0
2017-Oct-26 03:22S 24°08' W 046°20'0 0.0
2017-Oct-26 02:52S 24°08' W 046°20'0 0.0
2017-Oct-26 02:28S 24°08' W 046°20'0 0.0
2017-Oct-26 01:58S 24°08' W 046°20'0 0.0
2017-Oct-26 01:28S 24°08' W 046°20'0 0.0
2017-Oct-26 00:46S 24°08' W 046°20'0 0.0
2017-Oct-26 00:22S 24°08' W 046°20'0 0.0
2017-Oct-25 23:58S 24°08' W 046°20'0 0.0
2017-Oct-25 23:22S 24°08' W 046°20'0 0.0
2017-Oct-25 22:55S 24°08' W 046°20'0 0.0
2017-Oct-25 22:28S 24°08' W 046°20'0 0.0
2017-Oct-25 21:58S 24°08' W 046°20'0 0.0
2017-Oct-25 21:28S 24°08' W 046°20'0 0.0
2017-Oct-25 20:52S 24°08' W 046°20'0 0.0
2017-Oct-25 20:28S 24°08' W 046°20'0 0.0
2017-Oct-25 19:58S 24°08' W 046°20'0 0.0
2017-Oct-25 19:28S 24°08' W 046°20'0 0.0
2017-Oct-25 18:58S 24°08' W 046°20'0 0.0
2017-Oct-25 18:22S 24°08' W 046°20'0 0.0
2017-Oct-25 17:58S 24°08' W 046°20'0 0.0
2017-Oct-25 17:28S 24°08' W 046°20'0 0.0
2017-Oct-25 16:58S 24°08' W 046°20'0 0.0
2017-Oct-25 16:28S 24°08' W 046°20'0 0.0
2017-Oct-25 15:58S 24°08' W 046°20'0 0.0
2017-Oct-25 15:28S 24°08' W 046°20'0 0.0
2017-Oct-25 14:58S 24°08' W 046°20'0 0.0
2017-Oct-25 14:28S 24°08' W 046°20'0 0.0
2017-Oct-25 13:58S 24°08' W 046°20'0 0.0
2017-Oct-25 13:28S 24°08' W 046°20'0 0.0
2017-Oct-25 12:58S 24°08' W 046°20'0 0.0
2017-Oct-25 12:19S 24°08' W 046°20'0 0.0
2017-Oct-25 11:58S 24°08' W 046°20'0 0.0
2017-Oct-25 11:28S 24°08' W 046°20'0 0.0
2017-Oct-25 10:58S 24°08' W 046°20'0 0.0
2017-Oct-25 10:28S 24°08' W 046°20'0 0.0
2017-Oct-25 09:52S 24°08' W 046°20'0 0.0
2017-Oct-25 09:28S 24°08' W 046°20'0 0.0
2017-Oct-25 08:58S 24°08' W 046°20'0 0.0
2017-Oct-25 08:28S 24°08' W 046°20'0 0.0
2017-Oct-25 07:58S 24°08' W 046°20'0 0.0
2017-Oct-25 07:28S 24°08' W 046°20'0 0.0
2017-Oct-25 06:58S 24°08' W 046°20'0 0.0
2017-Oct-25 05:46S 24°08' W 046°20'0 0.0
2017-Oct-25 05:28S 24°08' W 046°20'0 0.0
2017-Oct-25 04:58S 24°08' W 046°20'0 0.0
2017-Oct-25 04:22S 24°08' W 046°20'0 0.0
2017-Oct-25 03:58S 24°08' W 046°20'0 0.0
2017-Oct-25 03:19S 24°08' W 046°20'0 0.0
2017-Oct-25 02:52S 24°08' W 046°20'0 0.0
2017-Oct-25 02:28S 24°08' W 046°20'0 0.0
2017-Oct-25 01:46S 24°08' W 046°20'0 0.0
2017-Oct-25 01:28S 24°08' W 046°20'0 0.0
2017-Oct-25 00:58S 24°08' W 046°20'0 0.0
2017-Oct-25 00:28S 24°08' W 046°20'0 0.0
2017-Oct-24 23:58S 24°08' W 046°20'0 0.0
2017-Oct-24 23:28S 24°08' W 046°20'0 0.0
2017-Oct-24 22:46S 24°08' W 046°20'0 0.0
2017-Oct-24 22:28S 24°08' W 046°20'0 0.0
2017-Oct-24 21:58S 24°08' W 046°20'0 0.0
2017-Oct-24 21:28S 24°08' W 046°20'0 0.0
2017-Oct-24 20:40S 24°08' W 046°20'0 0.1
2017-Oct-24 20:28S 24°08' W 046°20'0 0.0
2017-Oct-24 19:58S 24°08' W 046°20'0 0.1
2017-Oct-24 19:22S 24°08' W 046°20'0 0.0
2017-Oct-24 18:58S 24°08' W 046°20'0 0.0
2017-Oct-24 18:28S 24°08' W 046°20'0 0.0
2017-Oct-24 17:52S 24°08' W 046°20'0 0.1
2017-Oct-24 17:22S 24°08' W 046°20'0 0.0
2017-Oct-24 16:58S 24°08' W 046°20'0 0.1
2017-Oct-24 16:28S 24°08' W 046°20'0 0.0
2017-Oct-24 15:58S 24°08' W 046°20'0 0.0
2017-Oct-24 15:28S 24°08' W 046°20'0 0.0
2017-Oct-24 14:58S 24°08' W 046°20'0 0.1
2017-Oct-24 14:28S 24°08' W 046°20'0 0.0
2017-Oct-24 13:58S 24°08' W 046°20'0 0.1
2017-Oct-24 13:22S 24°08' W 046°20'0 0.0
2017-Oct-24 12:58S 24°08' W 046°20'0 0.0
2017-Oct-24 12:28S 24°08' W 046°20'0 0.0
2017-Oct-24 11:58S 24°08' W 046°20'0 0.0
2017-Oct-24 11:28S 24°08' W 046°20'0 0.0
2017-Oct-24 10:58S 24°08' W 046°20'0 0.0
2017-Oct-24 10:28S 24°08' W 046°20'0 0.1
2017-Oct-24 09:58S 24°08' W 046°20'0 0.1
2017-Oct-24 09:28S 24°08' W 046°20'0 0.0
2017-Oct-24 08:58S 24°08' W 046°20'0 0.0
2017-Oct-24 08:28S 24°08' W 046°20'0 0.0
2017-Oct-24 07:58S 24°08' W 046°20'0 0.0
2017-Oct-24 07:28S 24°08' W 046°20'0 0.0
2017-Oct-24 06:58S 24°08' W 046°20'0 0.0
2017-Oct-24 06:28S 24°08' W 046°20'0 0.0
2017-Oct-24 05:58S 24°08' W 046°20'0 0.0
2017-Oct-24 05:28S 24°08' W 046°20'0 0.0
2017-Oct-24 04:58S 24°08' W 046°20'0 0.0
2017-Oct-24 04:28S 24°08' W 046°20'0 0.0
2017-Oct-24 03:58S 24°08' W 046°20'0 0.0
2017-Oct-24 03:28S 24°08' W 046°20'0 0.0
2017-Oct-24 02:58S 24°08' W 046°20'0 0.0
2017-Oct-24 02:25S 24°08' W 046°20'0 0.0
2017-Oct-24 01:58S 24°08' W 046°20'0 0.0
2017-Oct-24 01:28S 24°08' W 046°20'0 0.0
2017-Oct-24 00:58S 24°08' W 046°20'0 0.0
2017-Oct-24 00:28S 24°08' W 046°20'0 0.0
2017-Oct-23 23:58S 24°08' W 046°20'0 0.0
2017-Oct-23 23:28S 24°08' W 046°20'0 0.0
2017-Oct-23 22:58S 24°08' W 046°20'0 0.0
2017-Oct-23 22:28S 24°08' W 046°20'0 0.0
2017-Oct-23 21:52S 24°08' W 046°20'0 0.0
2017-Oct-23 21:28S 24°08' W 046°20'0 0.0
2017-Oct-23 20:58S 24°08' W 046°20'0 0.0
2017-Oct-23 20:28S 24°08' W 046°20'0 0.0
2017-Oct-23 19:58S 24°08' W 046°20'0 0.1
2017-Oct-23 19:28S 24°08' W 046°20'0 0.0
2017-Oct-23 18:37S 24°08' W 046°20'0 0.1
2017-Oct-23 18:28S 24°08' W 046°20'0 0.0
2017-Oct-23 17:58S 24°08' W 046°20'0 0.0
2017-Oct-23 17:28S 24°08' W 046°20'0 0.0
2017-Oct-23 16:58S 24°08' W 046°20'0 0.0
2017-Oct-23 16:28S 24°08' W 046°20'0 0.0
2017-Oct-23 15:58S 24°08' W 046°20'0 0.0
2017-Oct-23 15:28S 24°08' W 046°20'0 0.0
2017-Oct-23 14:52S 24°08' W 046°20'0 0.0
2017-Oct-23 14:22S 24°08' W 046°20'0 0.0
2017-Oct-23 13:58S 24°08' W 046°20'0 0.0
2017-Oct-23 13:28S 24°08' W 046°20'0 0.0
2017-Oct-23 12:58S 24°08' W 046°20'0 0.0
2017-Oct-23 12:28S 24°08' W 046°20'0 0.0
2017-Oct-23 11:52S 24°08' W 046°20'0 0.0
2017-Oct-23 11:28S 24°08' W 046°20'0 0.0
2017-Oct-23 10:49S 24°08' W 046°20'0 0.0
2017-Oct-23 10:28S 24°08' W 046°20'0 0.0
2017-Oct-23 09:58S 24°08' W 046°20'0 0.0
2017-Oct-23 09:22S 24°08' W 046°20'0 0.0
2017-Oct-23 08:52S 24°08' W 046°20'0 0.0
2017-Oct-23 08:28S 24°08' W 046°20'0 0.0
2017-Oct-23 07:58S 24°08' W 046°20'0 0.0
2017-Oct-23 07:28S 24°08' W 046°20'0 0.0
2017-Oct-23 06:58S 24°08' W 046°20'0 0.0
2017-Oct-23 06:28S 24°08' W 046°20'0 0.0
2017-Oct-23 05:58S 24°08' W 046°20'0 0.0
2017-Oct-23 05:28S 24°08' W 046°20'0 0.0
2017-Oct-23 04:58S 24°08' W 046°20'0 0.1
2017-Oct-23 04:22S 24°08' W 046°20'0 0.0
2017-Oct-23 03:58S 24°08' W 046°20'0 0.0
2017-Oct-23 03:28S 24°08' W 046°20'0 0.0
2017-Oct-23 02:58S 24°08' W 046°20'0 0.0
2017-Oct-23 02:25S 24°08' W 046°20'0 0.0
2017-Oct-23 01:58S 24°08' W 046°20'0 0.0
2017-Oct-23 01:28S 24°08' W 046°20'0 0.0
2017-Oct-23 00:40S 24°08' W 046°20'0 0.0
2017-Oct-23 00:22S 24°08' W 046°20'0 0.0
2017-Oct-22 23:55S 24°08' W 046°20'0 0.0
2017-Oct-22 23:28S 24°08' W 046°20'0 0.0
2017-Oct-22 22:49S 24°08' W 046°20'0 0.0
2017-Oct-22 22:28S 24°08' W 046°20'0 0.0
2017-Oct-22 21:52S 24°08' W 046°20'0 0.0
2017-Oct-22 21:28S 24°08' W 046°20'0 0.0
2017-Oct-22 20:58S 24°08' W 046°20'0 0.0
2017-Oct-22 20:22S 24°08' W 046°20'0 0.0
2017-Oct-22 19:58S 24°08' W 046°20'0 0.0
2017-Oct-22 19:28S 24°08' W 046°20'0 0.0
2017-Oct-22 18:58S 24°08' W 046°20'0 0.0
2017-Oct-22 18:28S 24°08' W 046°20'0 0.1
2017-Oct-22 17:58S 24°08' W 046°20'0 0.0
2017-Oct-22 17:28S 24°08' W 046°20'0 0.0
2017-Oct-22 16:46S 24°08' W 046°20'0 0.0
2017-Oct-22 16:28S 24°08' W 046°20'0 0.0
2017-Oct-22 15:58S 24°08' W 046°20'0 0.1
2017-Oct-22 15:28S 24°08' W 046°20'0 0.0
2017-Oct-22 14:58S 24°08' W 046°20'0 0.1
2017-Oct-22 14:28S 24°08' W 046°20'0 0.2
2017-Oct-22 13:58S 24°08' W 046°20'0 0.1
2017-Oct-22 13:28S 24°08' W 046°20'0 0.1
2017-Oct-22 12:58S 24°08' W 046°20'0 0.0
2017-Oct-22 12:28S 24°08' W 046°20'0 0.1
2017-Oct-22 11:58S 24°08' W 046°20'0 0.0
2017-Oct-22 11:28S 24°08' W 046°20'0 0.1
2017-Oct-22 10:58S 24°08' W 046°20'0 0.2
2017-Oct-22 10:28S 24°08' W 046°20'0 0.1
2017-Oct-22 09:58S 24°08' W 046°20'0 0.0
2017-Oct-22 09:28S 24°08' W 046°20'0 0.1
2017-Oct-22 08:58S 24°08' W 046°20'0 0.0
2017-Oct-22 08:28S 24°08' W 046°20'0 0.0
2017-Oct-22 07:52S 24°08' W 046°20'0 0.0
2017-Oct-22 07:28S 24°08' W 046°20'0 0.0
2017-Oct-22 06:58S 24°08' W 046°20'0 0.0
2017-Oct-22 06:28S 24°08' W 046°20'0 0.1
2017-Oct-22 05:58S 24°08' W 046°20'0 0.0
2017-Oct-22 05:28S 24°08' W 046°20'0 0.0
2017-Oct-22 04:58S 24°08' W 046°20'0 0.0
2017-Oct-22 04:28S 24°08' W 046°20'0 0.0
2017-Oct-22 03:58S 24°08' W 046°20'0 0.0
2017-Oct-22 03:25S 24°08' W 046°20'0 0.0
2017-Oct-22 02:55S 24°08' W 046°20'0 0.0
2017-Oct-22 02:28S 24°08' W 046°20'0 0.0
2017-Oct-22 01:58S 24°08' W 046°20'0 0.0
2017-Oct-22 01:28S 24°08' W 046°20'0 0.1
2017-Oct-22 00:58S 24°08' W 046°20'0 0.1
2017-Oct-22 00:28S 24°08' W 046°20'0 0.0
2017-Oct-21 23:58S 24°08' W 046°20'0 0.0
2017-Oct-21 23:28S 24°08' W 046°20'0 0.0
2017-Oct-21 22:52S 24°08' W 046°20'0 0.0
2017-Oct-21 22:28S 24°08' W 046°20'0 0.0
2017-Oct-21 21:52S 24°08' W 046°20'0 0.1
2017-Oct-21 21:28S 24°08' W 046°20'0 0.1
2017-Oct-21 20:58S 24°08' W 046°20'0 0.1
2017-Oct-21 20:22S 24°08' W 046°20'0 0.0
2017-Oct-21 19:58S 24°08' W 046°20'0 0.0
2017-Oct-21 19:28S 24°08' W 046°20'0 0.0
2017-Oct-21 18:58S 24°08' W 046°20'0 0.1
2017-Oct-21 18:25S 24°08' W 046°20'0 0.1
2017-Oct-21 17:58S 24°08' W 046°20'0 0.2
2017-Oct-21 17:28S 24°08' W 046°20'0 0.1
2017-Oct-21 16:58S 24°08' W 046°20'0 0.0
2017-Oct-21 16:28S 24°08' W 046°20'0 0.0
2017-Oct-21 15:52S 24°08' W 046°20'0 0.1
2017-Oct-21 15:28S 24°08' W 046°20'0 0.0
2017-Oct-21 14:58S 24°08' W 046°20'0 0.0
2017-Oct-21 13:58S 24°08' W 046°20'0 0.0
2017-Oct-21 13:28S 24°08' W 046°20'0 0.0
2017-Oct-21 12:58S 24°08' W 046°20'0 0.0
2017-Oct-21 12:28S 24°08' W 046°20'0 0.0
2017-Oct-21 11:52S 24°08' W 046°20'0 0.0
2017-Oct-21 11:28S 24°08' W 046°20'0 0.0
2017-Oct-21 10:55S 24°08' W 046°20'0 0.0
2017-Oct-21 10:28S 24°08' W 046°20'0 0.0
2017-Oct-21 09:58S 24°08' W 046°20'0 0.0
2017-Oct-21 09:28S 24°08' W 046°20'0 0.0
2017-Oct-21 08:58S 24°08' W 046°20'0 0.0
2017-Oct-21 08:28S 24°08' W 046°20'0 0.0
2017-Oct-21 07:58S 24°08' W 046°20'0 0.0
2017-Oct-21 07:28S 24°08' W 046°20'0 0.0
2017-Oct-21 06:58S 24°08' W 046°20'0 0.0
2017-Oct-21 06:25S 24°08' W 046°20'0 0.0
2017-Oct-21 05:58S 24°08' W 046°20'0 0.0
2017-Oct-21 05:28S 24°08' W 046°20'0 0.0
2017-Oct-21 04:58S 24°08' W 046°20'0 0.0
2017-Oct-21 04:28S 24°08' W 046°20'0 0.0
2017-Oct-21 03:55S 24°08' W 046°20'0 0.0
2017-Oct-21 03:25S 24°08' W 046°20'0 0.0
2017-Oct-21 02:55S 24°08' W 046°20'0 0.0
2017-Oct-21 02:28S 24°08' W 046°20'0 0.0
2017-Oct-21 01:58S 24°08' W 046°20'0 0.0
2017-Oct-21 01:28S 24°08' W 046°20'0 0.0
2017-Oct-21 00:58S 24°08' W 046°20'0 0.0
2017-Oct-21 00:28S 24°08' W 046°20'0 0.0
2017-Oct-20 23:58S 24°08' W 046°20'0 0.0
2017-Oct-20 23:28S 24°08' W 046°20'0 0.0
2017-Oct-20 22:58S 24°08' W 046°20'0 0.0
2017-Oct-20 22:28S 24°08' W 046°20'0 0.0
2017-Oct-20 21:58S 24°08' W 046°20'0 0.0
2017-Oct-20 21:28S 24°08' W 046°20'0 0.0
2017-Oct-20 20:52S 24°08' W 046°20'0 0.0
2017-Oct-20 20:28S 24°08' W 046°20'0 0.0
2017-Oct-20 19:58S 24°08' W 046°20'0 0.0
2017-Oct-20 19:28S 24°08' W 046°20'0 0.1
2017-Oct-20 18:58S 24°08' W 046°20'0 0.0
2017-Oct-20 18:28S 24°08' W 046°20'0 0.1
2017-Oct-20 17:58S 24°08' W 046°20'0 0.0
2017-Oct-20 17:28S 24°08' W 046°20'0 0.0
2017-Oct-20 16:58S 24°08' W 046°20'0 0.0
2017-Oct-20 16:28S 24°08' W 046°20'0 0.0
2017-Oct-20 15:55S 24°08' W 046°20'0 0.0
2017-Oct-20 15:28S 24°08' W 046°20'0 0.0
2017-Oct-20 14:52S 24°08' W 046°20'0 0.0
2017-Oct-20 13:58S 24°08' W 046°20'0 0.0
2017-Oct-20 13:25S 24°08' W 046°20'0 0.0
2017-Oct-20 12:58S 24°08' W 046°20'0 0.0
2017-Oct-20 12:13S 24°08' W 046°20'0 0.0
2017-Oct-20 11:58S 24°08' W 046°20'  
Track history (hours):
 
Tides and Currents Weather Stations Pressure Air Temp Water Temp Dewpoint Dewpoint Depression Visibility Wind Speed Wind Dir Waves Ship Positions

Bastille Street

Last reported at 2017-Oct-30 11:45 UTC. Time now 2017-Nov-23 05:48 UTC.
Position S 24°15' W 046°03'.
Warning: this ship's position is 23 days out of date.

Length 180 m; draft 7.7 m.

MMSI: 636015161.

Date/timePositionNaut miles runAvg speedWind from/ knotsBaromVisibWave heightAir tempDewpointWater temp
2017-Oct-30 11:45S 24°15' W 046°03'612.8
2017-Oct-30 11:15S 24°15' W 046°10'312.4
2017-Oct-30 11:00S 24°15' W 046°13'612.5
2017-Oct-30 10:30S 24°16' W 046°20'611.7
2017-Oct-30 10:00S 24°11' W 046°24'613.0
2017-Oct-30 09:30S 24°05' W 046°22'510.6
2017-Oct-30 09:00S 24°00' W 046°20'3 5.8
2017-Oct-30 08:30S 23°58' W 046°18'  
2017-Oct-27 03:34S 23°56' W 046°20'0 0.7
2017-Oct-27 03:17S 23°56' W 046°20'1 5.2
2017-Oct-27 03:00S 23°57' W 046°19'3 5.5
2017-Oct-27 02:30S 23°60' W 046°19'4 7.7
2017-Oct-27 02:00S 24°03' W 046°21'3 6.6
2017-Oct-27 01:30S 24°06' W 046°21'1 1.1
2017-Oct-27 00:59S 24°06' W 046°21'0 0.1
2017-Oct-27 00:29S 24°06' W 046°21'0 0.0
2017-Oct-26 23:59S 24°06' W 046°21'0 0.0
2017-Oct-26 23:29S 24°06' W 046°21'0 0.0
2017-Oct-26 22:59S 24°06' W 046°21'0 0.0
2017-Oct-26 22:29S 24°06' W 046°21'0 0.0
2017-Oct-26 21:59S 24°06' W 046°21'0 0.0
2017-Oct-26 20:53S 24°06' W 046°21'0 0.0
2017-Oct-26 20:17S 24°06' W 046°21'0 0.0
2017-Oct-26 18:59S 24°06' W 046°21'0 0.0
2017-Oct-26 18:29S 24°06' W 046°21'0 0.0
2017-Oct-26 17:59S 24°06' W 046°21'0 0.0
2017-Oct-26 17:29S 24°06' W 046°21'0 0.0
2017-Oct-26 16:53S 24°06' W 046°21'0 0.0
2017-Oct-26 16:23S 24°06' W 046°21'0 0.0
2017-Oct-26 15:59S 24°06' W 046°21'0 0.0
2017-Oct-26 15:11S 24°06' W 046°21'0 0.0
2017-Oct-26 14:59S 24°06' W 046°21'0 0.0
2017-Oct-26 14:29S 24°06' W 046°21'0 0.0
2017-Oct-26 13:59S 24°06' W 046°21'0 0.0
2017-Oct-26 13:20S 24°06' W 046°21'0 0.0
2017-Oct-26 12:59S 24°06' W 046°21'0 0.0
2017-Oct-26 12:29S 24°06' W 046°21'0 0.0
2017-Oct-26 11:59S 24°06' W 046°21'0 0.0
2017-Oct-26 11:29S 24°06' W 046°21'0 0.1
2017-Oct-26 10:53S 24°06' W 046°21'0 0.9
2017-Oct-26 10:30S 24°06' W 046°21'1 2.8
2017-Oct-26 10:00S 24°06' W 046°23'3 5.8
2017-Oct-26 09:30S 24°08' W 046°20'0 0.5
2017-Oct-26 08:52S 24°08' W 046°20'0 0.0
2017-Oct-26 08:22S 24°08' W 046°20'0 0.0
2017-Oct-26 07:52S 24°08' W 046°20'0 0.0
2017-Oct-26 07:28S 24°08' W 046°20'0 0.0
2017-Oct-26 06:58S 24°08' W 046°20'0 0.0
2017-Oct-26 06:22S 24°08' W 046°20'0 0.0
2017-Oct-26 05:46S 24°08' W 046°20'0 0.0
2017-Oct-26 05:22S 24°08' W 046°20'0 0.0
2017-Oct-26 04:58S 24°08' W 046°20'0 0.0
2017-Oct-26 04:04S 24°08' W 046°20'0 0.1
2017-Oct-26 03:58S 24°08' W 046°20'0 0.0
2017-Oct-26 03:22S 24°08' W 046°20'0 0.0
2017-Oct-26 02:52S 24°08' W 046°20'0 0.0
2017-Oct-26 02:28S 24°08' W 046°20'0 0.0
2017-Oct-26 01:58S 24°08' W 046°20'0 0.0
2017-Oct-26 01:28S 24°08' W 046°20'0 0.0
2017-Oct-26 00:46S 24°08' W 046°20'0 0.0
2017-Oct-26 00:22S 24°08' W 046°20'0 0.0
2017-Oct-25 23:58S 24°08' W 046°20'0 0.0
2017-Oct-25 23:22S 24°08' W 046°20'0 0.0
2017-Oct-25 22:55S 24°08' W 046°20'0 0.0
2017-Oct-25 22:28S 24°08' W 046°20'0 0.0
2017-Oct-25 21:58S 24°08' W 046°20'0 0.0
2017-Oct-25 21:28S 24°08' W 046°20'0 0.0
2017-Oct-25 20:52S 24°08' W 046°20'0 0.0
2017-Oct-25 20:28S 24°08' W 046°20'0 0.0
2017-Oct-25 19:58S 24°08' W 046°20'0 0.0
2017-Oct-25 19:28S 24°08' W 046°20'0 0.0
2017-Oct-25 18:58S 24°08' W 046°20'0 0.0
2017-Oct-25 18:22S 24°08' W 046°20'0 0.0
2017-Oct-25 17:58S 24°08' W 046°20'0 0.0
2017-Oct-25 17:28S 24°08' W 046°20'0 0.0
2017-Oct-25 16:58S 24°08' W 046°20'0 0.0
2017-Oct-25 16:28S 24°08' W 046°20'0 0.0
2017-Oct-25 15:58S 24°08' W 046°20'0 0.0
2017-Oct-25 15:28S 24°08' W 046°20'0 0.0
2017-Oct-25 14:58S 24°08' W 046°20'0 0.0
2017-Oct-25 14:28S 24°08' W 046°20'0 0.0
2017-Oct-25 13:58S 24°08' W 046°20'0 0.0
2017-Oct-25 13:28S 24°08' W 046°20'0 0.0
2017-Oct-25 12:58S 24°08' W 046°20'0 0.0
2017-Oct-25 12:19S 24°08' W 046°20'0 0.0
2017-Oct-25 11:58S 24°08' W 046°20'0 0.0
2017-Oct-25 11:28S 24°08' W 046°20'0 0.0
2017-Oct-25 10:58S 24°08' W 046°20'0 0.0
2017-Oct-25 10:28S 24°08' W 046°20'0 0.0
2017-Oct-25 09:52S 24°08' W 046°20'0 0.0
2017-Oct-25 09:28S 24°08' W 046°20'0 0.0
2017-Oct-25 08:58S 24°08' W 046°20'0 0.0
2017-Oct-25 08:28S 24°08' W 046°20'0 0.0
2017-Oct-25 07:58S 24°08' W 046°20'0 0.0
2017-Oct-25 07:28S 24°08' W 046°20'0 0.0
2017-Oct-25 06:58S 24°08' W 046°20'0 0.0
2017-Oct-25 05:46S 24°08' W 046°20'0 0.0
2017-Oct-25 05:28S 24°08' W 046°20'0 0.0
2017-Oct-25 04:58S 24°08' W 046°20'0 0.0
2017-Oct-25 04:22S 24°08' W 046°20'0 0.0
2017-Oct-25 03:58S 24°08' W 046°20'0 0.0
2017-Oct-25 03:19S 24°08' W 046°20'0 0.0
2017-Oct-25 02:52S 24°08' W 046°20'0 0.0
2017-Oct-25 02:28S 24°08' W 046°20'0 0.0
2017-Oct-25 01:46S 24°08' W 046°20'0 0.0
2017-Oct-25 01:28S 24°08' W 046°20'0 0.0
2017-Oct-25 00:58S 24°08' W 046°20'0 0.0
2017-Oct-25 00:28S 24°08' W 046°20'0 0.0
2017-Oct-24 23:58S 24°08' W 046°20'0 0.0
2017-Oct-24 23:28S 24°08' W 046°20'0 0.0
2017-Oct-24 22:46S 24°08' W 046°20'0 0.0
2017-Oct-24 22:28S 24°08' W 046°20'0 0.0
2017-Oct-24 21:58S 24°08' W 046°20'0 0.0
2017-Oct-24 21:28S 24°08' W 046°20'0 0.0
2017-Oct-24 20:40S 24°08' W 046°20'0 0.1
2017-Oct-24 20:28S 24°08' W 046°20'0 0.0
2017-Oct-24 19:58S 24°08' W 046°20'0 0.1
2017-Oct-24 19:22S 24°08' W 046°20'0 0.0
2017-Oct-24 18:58S 24°08' W 046°20'0 0.0
2017-Oct-24 18:28S 24°08' W 046°20'0 0.0
2017-Oct-24 17:52S 24°08' W 046°20'0 0.1
2017-Oct-24 17:22S 24°08' W 046°20'0 0.0
2017-Oct-24 16:58S 24°08' W 046°20'0 0.1
2017-Oct-24 16:28S 24°08' W 046°20'0 0.0
2017-Oct-24 15:58S 24°08' W 046°20'0 0.0
2017-Oct-24 15:28S 24°08' W 046°20'0 0.0
2017-Oct-24 14:58S 24°08' W 046°20'0 0.1
2017-Oct-24 14:28S 24°08' W 046°20'0 0.0
2017-Oct-24 13:58S 24°08' W 046°20'0 0.1
2017-Oct-24 13:22S 24°08' W 046°20'0 0.0
2017-Oct-24 12:58S 24°08' W 046°20'0 0.0
2017-Oct-24 12:28S 24°08' W 046°20'0 0.0
2017-Oct-24 11:58S 24°08' W 046°20'0 0.0
2017-Oct-24 11:28S 24°08' W 046°20'0 0.0
2017-Oct-24 10:58S 24°08' W 046°20'0 0.0
2017-Oct-24 10:28S 24°08' W 046°20'0 0.1
2017-Oct-24 09:58S 24°08' W 046°20'0 0.1
2017-Oct-24 09:28S 24°08' W 046°20'0 0.0
2017-Oct-24 08:58S 24°08' W 046°20'0 0.0
2017-Oct-24 08:28S 24°08' W 046°20'0 0.0
2017-Oct-24 07:58S 24°08' W 046°20'0 0.0
2017-Oct-24 07:28S 24°08' W 046°20'0 0.0
2017-Oct-24 06:58S 24°08' W 046°20'0 0.0
2017-Oct-24 06:28S 24°08' W 046°20'0 0.0
2017-Oct-24 05:58S 24°08' W 046°20'0 0.0
2017-Oct-24 05:28S 24°08' W 046°20'0 0.0
2017-Oct-24 04:58S 24°08' W 046°20'0 0.0
2017-Oct-24 04:28S 24°08' W 046°20'0 0.0
2017-Oct-24 03:58S 24°08' W 046°20'0 0.0
2017-Oct-24 03:28S 24°08' W 046°20'0 0.0
2017-Oct-24 02:58S 24°08' W 046°20'0 0.0
2017-Oct-24 02:25S 24°08' W 046°20'0 0.0
2017-Oct-24 01:58S 24°08' W 046°20'0 0.0
2017-Oct-24 01:28S 24°08' W 046°20'0 0.0
2017-Oct-24 00:58S 24°08' W 046°20'0 0.0
2017-Oct-24 00:28S 24°08' W 046°20'0 0.0
2017-Oct-23 23:58S 24°08' W 046°20'0 0.0
2017-Oct-23 23:28S 24°08' W 046°20'0 0.0
2017-Oct-23 22:58S 24°08' W 046°20'0 0.0
2017-Oct-23 22:28S 24°08' W 046°20'0 0.0
2017-Oct-23 21:52S 24°08' W 046°20'0 0.0
2017-Oct-23 21:28S 24°08' W 046°20'0 0.0
2017-Oct-23 20:58S 24°08' W 046°20'0 0.0
2017-Oct-23 20:28S 24°08' W 046°20'0 0.0
2017-Oct-23 19:58S 24°08' W 046°20'0 0.1
2017-Oct-23 19:28S 24°08' W 046°20'0 0.0
2017-Oct-23 18:37S 24°08' W 046°20'0 0.1
2017-Oct-23 18:28S 24°08' W 046°20'0 0.0
2017-Oct-23 17:58S 24°08' W 046°20'0 0.0
2017-Oct-23 17:28S 24°08' W 046°20'0 0.0
2017-Oct-23 16:58S 24°08' W 046°20'0 0.0
2017-Oct-23 16:28S 24°08' W 046°20'0 0.0
2017-Oct-23 15:58S 24°08' W 046°20'0 0.0
2017-Oct-23 15:28S 24°08' W 046°20'0 0.0
2017-Oct-23 14:52S 24°08' W 046°20'0 0.0
2017-Oct-23 14:22S 24°08' W 046°20'0 0.0
2017-Oct-23 13:58S 24°08' W 046°20'0 0.0
2017-Oct-23 13:28S 24°08' W 046°20'0 0.0
2017-Oct-23 12:58S 24°08' W 046°20'0 0.0
2017-Oct-23 12:28S 24°08' W 046°20'0 0.0
2017-Oct-23 11:52S 24°08' W 046°20'0 0.0
2017-Oct-23 11:28S 24°08' W 046°20'0 0.0
2017-Oct-23 10:49S 24°08' W 046°20'0 0.0
2017-Oct-23 10:28S 24°08' W 046°20'0 0.0
2017-Oct-23 09:58S 24°08' W 046°20'0 0.0
2017-Oct-23 09:22S 24°08' W 046°20'0 0.0
2017-Oct-23 08:52S 24°08' W 046°20'0 0.0
2017-Oct-23 08:28S 24°08' W 046°20'0 0.0
2017-Oct-23 07:58S 24°08' W 046°20'0 0.0
2017-Oct-23 07:28S 24°08' W 046°20'0 0.0
2017-Oct-23 06:58S 24°08' W 046°20'0 0.0
2017-Oct-23 06:28S 24°08' W 046°20'0 0.0
2017-Oct-23 05:58S 24°08' W 046°20'0 0.0
2017-Oct-23 05:28S 24°08' W 046°20'0 0.0
2017-Oct-23 04:58S 24°08' W 046°20'0 0.1
2017-Oct-23 04:22S 24°08' W 046°20'0 0.0
2017-Oct-23 03:58S 24°08' W 046°20'0 0.0
2017-Oct-23 03:28S 24°08' W 046°20'0 0.0
2017-Oct-23 02:58S 24°08' W 046°20'0 0.0
2017-Oct-23 02:25S 24°08' W 046°20'0 0.0
2017-Oct-23 01:58S 24°08' W 046°20'0 0.0
2017-Oct-23 01:28S 24°08' W 046°20'0 0.0
2017-Oct-23 00:40S 24°08' W 046°20'0 0.0
2017-Oct-23 00:22S 24°08' W 046°20'0 0.0
2017-Oct-22 23:55S 24°08' W 046°20'0 0.0
2017-Oct-22 23:28S 24°08' W 046°20'0 0.0
2017-Oct-22 22:49S 24°08' W 046°20'0 0.0
2017-Oct-22 22:28S 24°08' W 046°20'0 0.0
2017-Oct-22 21:52S 24°08' W 046°20'0 0.0
2017-Oct-22 21:28S 24°08' W 046°20'0 0.0
2017-Oct-22 20:58S 24°08' W 046°20'0 0.0
2017-Oct-22 20:22S 24°08' W 046°20'0 0.0
2017-Oct-22 19:58S 24°08' W 046°20'0 0.0
2017-Oct-22 19:28S 24°08' W 046°20'0 0.0
2017-Oct-22 18:58S 24°08' W 046°20'0 0.0
2017-Oct-22 18:28S 24°08' W 046°20'0 0.1
2017-Oct-22 17:58S 24°08' W 046°20'0 0.0
2017-Oct-22 17:28S 24°08' W 046°20'0 0.0
2017-Oct-22 16:46S 24°08' W 046°20'0 0.0
2017-Oct-22 16:28S 24°08' W 046°20'0 0.0
2017-Oct-22 15:58S 24°08' W 046°20'0 0.1
2017-Oct-22 15:28S 24°08' W 046°20'0 0.0
2017-Oct-22 14:58S 24°08' W 046°20'0 0.1
2017-Oct-22 14:28S 24°08' W 046°20'0 0.2
2017-Oct-22 13:58S 24°08' W 046°20'0 0.1
2017-Oct-22 13:28S 24°08' W 046°20'0 0.1
2017-Oct-22 12:58S 24°08' W 046°20'0 0.0
2017-Oct-22 12:28S 24°08' W 046°20'0 0.1
2017-Oct-22 11:58S 24°08' W 046°20'0 0.0
2017-Oct-22 11:28S 24°08' W 046°20'0 0.1
2017-Oct-22 10:58S 24°08' W 046°20'0 0.2
2017-Oct-22 10:28S 24°08' W 046°20'0 0.1
2017-Oct-22 09:58S 24°08' W 046°20'0 0.0
2017-Oct-22 09:28S 24°08' W 046°20'0 0.1
2017-Oct-22 08:58S 24°08' W 046°20'0 0.0
2017-Oct-22 08:28S 24°08' W 046°20'0 0.0
2017-Oct-22 07:52S 24°08' W 046°20'0 0.0
2017-Oct-22 07:28S 24°08' W 046°20'0 0.0
2017-Oct-22 06:58S 24°08' W 046°20'0 0.0
2017-Oct-22 06:28S 24°08' W 046°20'0 0.1
2017-Oct-22 05:58S 24°08' W 046°20'0 0.0
2017-Oct-22 05:28S 24°08' W 046°20'0 0.0
2017-Oct-22 04:58S 24°08' W 046°20'0 0.0
2017-Oct-22 04:28S 24°08' W 046°20'0 0.0
2017-Oct-22 03:58S 24°08' W 046°20'0 0.0
2017-Oct-22 03:25S 24°08' W 046°20'0 0.0
2017-Oct-22 02:55S 24°08' W 046°20'0 0.0
2017-Oct-22 02:28S 24°08' W 046°20'0 0.0
2017-Oct-22 01:58S 24°08' W 046°20'0 0.0
2017-Oct-22 01:28S 24°08' W 046°20'0 0.1
2017-Oct-22 00:58S 24°08' W 046°20'0 0.1
2017-Oct-22 00:28S 24°08' W 046°20'0 0.0
2017-Oct-21 23:58S 24°08' W 046°20'0 0.0
2017-Oct-21 23:28S 24°08' W 046°20'0 0.0
2017-Oct-21 22:52S 24°08' W 046°20'0 0.0
2017-Oct-21 22:28S 24°08' W 046°20'0 0.0
2017-Oct-21 21:52S 24°08' W 046°20'0 0.1
2017-Oct-21 21:28S 24°08' W 046°20'0 0.1
2017-Oct-21 20:58S 24°08' W 046°20'0 0.1
2017-Oct-21 20:22S 24°08' W 046°20'0 0.0
2017-Oct-21 19:58S 24°08' W 046°20'0 0.0
2017-Oct-21 19:28S 24°08' W 046°20'0 0.0
2017-Oct-21 18:58S 24°08' W 046°20'0 0.1
2017-Oct-21 18:25S 24°08' W 046°20'0 0.1
2017-Oct-21 17:58S 24°08' W 046°20'0 0.2
2017-Oct-21 17:28S 24°08' W 046°20'0 0.1
2017-Oct-21 16:58S 24°08' W 046°20'0 0.0
2017-Oct-21 16:28S 24°08' W 046°20'0 0.0
2017-Oct-21 15:52S 24°08' W 046°20'0 0.1
2017-Oct-21 15:28S 24°08' W 046°20'0 0.0
2017-Oct-21 14:58S 24°08' W 046°20'0 0.0
2017-Oct-21 13:58S 24°08' W 046°20'0 0.0
2017-Oct-21 13:28S 24°08' W 046°20'0 0.0
2017-Oct-21 12:58S 24°08' W 046°20'0 0.0
2017-Oct-21 12:28S 24°08' W 046°20'0 0.0
2017-Oct-21 11:52S 24°08' W 046°20'0 0.0
2017-Oct-21 11:28S 24°08' W 046°20'0 0.0
2017-Oct-21 10:55S 24°08' W 046°20'0 0.0
2017-Oct-21 10:28S 24°08' W 046°20'0 0.0
2017-Oct-21 09:58S 24°08' W 046°20'0 0.0
2017-Oct-21 09:28S 24°08' W 046°20'0 0.0
2017-Oct-21 08:58S 24°08' W 046°20'0 0.0
2017-Oct-21 08:28S 24°08' W 046°20'0 0.0
2017-Oct-21 07:58S 24°08' W 046°20'0 0.0
2017-Oct-21 07:28S 24°08' W 046°20'0 0.0
2017-Oct-21 06:58S 24°08' W 046°20'0 0.0
2017-Oct-21 06:25S 24°08' W 046°20'0 0.0
2017-Oct-21 05:58S 24°08' W 046°20'0 0.0
2017-Oct-21 05:28S 24°08' W 046°20'0 0.0
2017-Oct-21 04:58S 24°08' W 046°20'0 0.0
2017-Oct-21 04:28S 24°08' W 046°20'0 0.0
2017-Oct-21 03:55S 24°08' W 046°20'0 0.0
2017-Oct-21 03:25S 24°08' W 046°20'0 0.0
2017-Oct-21 02:55S 24°08' W 046°20'0 0.0
2017-Oct-21 02:28S 24°08' W 046°20'0 0.0
2017-Oct-21 01:58S 24°08' W 046°20'0 0.0
2017-Oct-21 01:28S 24°08' W 046°20'0 0.0
2017-Oct-21 00:58S 24°08' W 046°20'0 0.0
2017-Oct-21 00:28S 24°08' W 046°20'0 0.0
2017-Oct-20 23:58S 24°08' W 046°20'0 0.0
2017-Oct-20 23:28S 24°08' W 046°20'0 0.0
2017-Oct-20 22:58S 24°08' W 046°20'0 0.0
2017-Oct-20 22:28S 24°08' W 046°20'0 0.0
2017-Oct-20 21:58S 24°08' W 046°20'0 0.0
2017-Oct-20 21:28S 24°08' W 046°20'0 0.0
2017-Oct-20 20:52S 24°08' W 046°20'0 0.0
2017-Oct-20 20:28S 24°08' W 046°20'0 0.0
2017-Oct-20 19:58S 24°08' W 046°20'0 0.0
2017-Oct-20 19:28S 24°08' W 046°20'0 0.1
2017-Oct-20 18:58S 24°08' W 046°20'0 0.0
2017-Oct-20 18:28S 24°08' W 046°20'0 0.1
2017-Oct-20 17:58S 24°08' W 046°20'0 0.0
2017-Oct-20 17:28S 24°08' W 046°20'0 0.0
2017-Oct-20 16:58S 24°08' W 046°20'0 0.0
2017-Oct-20 16:28S 24°08' W 046°20'0 0.0
2017-Oct-20 15:55S 24°08' W 046°20'0 0.0
2017-Oct-20 15:28S 24°08' W 046°20'0 0.0
2017-Oct-20 14:52S 24°08' W 046°20'0 0.0
2017-Oct-20 13:58S 24°08' W 046°20'0 0.0
2017-Oct-20 13:25S 24°08' W 046°20'0 0.0
2017-Oct-20 12:58S 24°08' W 046°20'0 0.0
2017-Oct-20 12:13S 24°08' W 046°20'0 0.0
2017-Oct-20 11:58S 24°08' W 046°20'  

Dump ship's entire track history